sensor_id;sensor_type;location;lat;lon;timestamp;P1;durP1;ratioP1;P2;durP2;ratioP2
14316;SDS011;7242;50.858;6.586;2024-01-30T00:00:35;19.90;;;14.10;;
14316;SDS011;7242;50.858;6.586;2024-01-30T00:03:37;21.17;;;13.17;;
14316;SDS011;7242;50.858;6.586;2024-01-30T00:06:37;13.90;;;11.37;;
14316;SDS011;7242;50.858;6.586;2024-01-30T00:09:39;12.40;;;11.10;;
14316;SDS011;7242;50.858;6.586;2024-01-30T00:12:42;13.03;;;10.67;;
14316;SDS011;7242;50.858;6.586;2024-01-30T00:15:43;14.03;;;11.20;;
14316;SDS011;7242;50.858;6.586;2024-01-30T00:18:44;13.30;;;10.53;;
14316;SDS011;7242;50.858;6.586;2024-01-30T00:21:46;13.03;;;10.83;;
14316;SDS011;7242;50.858;6.586;2024-01-30T00:24:47;14.57;;;11.53;;
14316;SDS011;7242;50.858;6.586;2024-01-30T00:27:48;20.80;;;13.80;;
14316;SDS011;7242;50.858;6.586;2024-01-30T00:30:49;20.07;;;13.60;;
14316;SDS011;7242;50.858;6.586;2024-01-30T00:33:50;13.00;;;10.67;;
14316;SDS011;7242;50.858;6.586;2024-01-30T00:36:51;11.57;;;10.03;;
14316;SDS011;7242;50.858;6.586;2024-01-30T00:39:52;14.97;;;10.67;;
14316;SDS011;7242;50.858;6.586;2024-01-30T00:42:54;11.40;;;10.20;;
14316;SDS011;7242;50.858;6.586;2024-01-30T00:45:54;11.93;;;10.13;;
14316;SDS011;7242;50.858;6.586;2024-01-30T00:48:56;12.27;;;10.50;;
14316;SDS011;7242;50.858;6.586;2024-01-30T00:51:57;11.83;;;10.17;;
14316;SDS011;7242;50.858;6.586;2024-01-30T00:54:58;12.40;;;9.63;;
14316;SDS011;7242;50.858;6.586;2024-01-30T00:57:59;14.77;;;11.10;;
14316;SDS011;7242;50.858;6.586;2024-01-30T01:01:00;14.53;;;10.47;;
14316;SDS011;7242;50.858;6.586;2024-01-30T01:04:01;14.63;;;10.30;;
14316;SDS011;7242;50.858;6.586;2024-01-30T01:07:02;11.67;;;10.43;;
14316;SDS011;7242;50.858;6.586;2024-01-30T01:10:03;13.13;;;10.23;;
14316;SDS011;7242;50.858;6.586;2024-01-30T01:13:04;12.20;;;10.60;;
14316;SDS011;7242;50.858;6.586;2024-01-30T01:16:05;12.33;;;9.67;;
14316;SDS011;7242;50.858;6.586;2024-01-30T01:19:06;10.43;;;8.67;;
14316;SDS011;7242;50.858;6.586;2024-01-30T01:22:07;10.57;;;8.80;;
14316;SDS011;7242;50.858;6.586;2024-01-30T01:25:09;13.00;;;9.87;;
14316;SDS011;7242;50.858;6.586;2024-01-30T01:28:10;12.43;;;9.17;;
14316;SDS011;7242;50.858;6.586;2024-01-30T01:31:11;10.63;;;9.03;;
14316;SDS011;7242;50.858;6.586;2024-01-30T01:34:12;12.13;;;9.63;;
14316;SDS011;7242;50.858;6.586;2024-01-30T01:37:13;11.40;;;8.83;;
14316;SDS011;7242;50.858;6.586;2024-01-30T01:40:14;13.87;;;9.03;;
14316;SDS011;7242;50.858;6.586;2024-01-30T01:43:15;10.93;;;9.23;;
14316;SDS011;7242;50.858;6.586;2024-01-30T01:46:16;12.40;;;9.43;;
14316;SDS011;7242;50.858;6.586;2024-01-30T01:49:18;13.10;;;10.20;;
14316;SDS011;7242;50.858;6.586;2024-01-30T01:52:19;12.23;;;9.70;;
14316;SDS011;7242;50.858;6.586;2024-01-30T01:55:21;10.90;;;8.93;;
14316;SDS011;7242;50.858;6.586;2024-01-30T01:58:23;13.53;;;9.50;;
14316;SDS011;7242;50.858;6.586;2024-01-30T02:01:29;12.43;;;9.90;;
14316;SDS011;7242;50.858;6.586;2024-01-30T02:04:30;9.77;;;8.53;;
14316;SDS011;7242;50.858;6.586;2024-01-30T02:07:31;12.63;;;8.50;;
14316;SDS011;7242;50.858;6.586;2024-01-30T02:10:32;9.37;;;7.60;;
14316;SDS011;7242;50.858;6.586;2024-01-30T02:13:33;10.63;;;8.27;;
14316;SDS011;7242;50.858;6.586;2024-01-30T02:16:34;10.27;;;7.93;;
14316;SDS011;7242;50.858;6.586;2024-01-30T02:19:36;13.10;;;9.23;;
14316;SDS011;7242;50.858;6.586;2024-01-30T02:22:37;10.73;;;8.63;;
14316;SDS011;7242;50.858;6.586;2024-01-30T02:25:40;10.73;;;8.77;;
14316;SDS011;7242;50.858;6.586;2024-01-30T02:28:44;13.40;;;8.30;;
14316;SDS011;7242;50.858;6.586;2024-01-30T02:31:45;11.80;;;7.63;;
14316;SDS011;7242;50.858;6.586;2024-01-30T02:34:46;10.53;;;7.67;;
14316;SDS011;7242;50.858;6.586;2024-01-30T02:37:47;10.80;;;7.77;;
14316;SDS011;7242;50.858;6.586;2024-01-30T02:40:49;10.87;;;7.60;;
14316;SDS011;7242;50.858;6.586;2024-01-30T02:43:50;8.80;;;7.53;;
14316;SDS011;7242;50.858;6.586;2024-01-30T02:46:51;10.57;;;7.40;;
14316;SDS011;7242;50.858;6.586;2024-01-30T02:49:51;11.20;;;7.73;;
14316;SDS011;7242;50.858;6.586;2024-01-30T02:52:52;9.67;;;7.60;;
14316;SDS011;7242;50.858;6.586;2024-01-30T02:55:53;8.60;;;6.90;;
14316;SDS011;7242;50.858;6.586;2024-01-30T02:58:55;8.67;;;7.07;;
14316;SDS011;7242;50.858;6.586;2024-01-30T03:01:56;10.43;;;7.33;;
14316;SDS011;7242;50.858;6.586;2024-01-30T03:04:57;9.23;;;7.30;;
14316;SDS011;7242;50.858;6.586;2024-01-30T03:07:57;9.87;;;7.23;;
14316;SDS011;7242;50.858;6.586;2024-01-30T03:10:58;10.27;;;7.10;;
14316;SDS011;7242;50.858;6.586;2024-01-30T03:14:00;9.40;;;7.03;;
14316;SDS011;7242;50.858;6.586;2024-01-30T03:17:01;10.27;;;7.00;;
14316;SDS011;7242;50.858;6.586;2024-01-30T03:20:03;9.60;;;6.77;;
14316;SDS011;7242;50.858;6.586;2024-01-30T03:23:05;9.90;;;7.37;;
14316;SDS011;7242;50.858;6.586;2024-01-30T03:26:06;11.70;;;7.43;;
14316;SDS011;7242;50.858;6.586;2024-01-30T03:29:09;10.47;;;7.50;;
14316;SDS011;7242;50.858;6.586;2024-01-30T03:32:10;9.50;;;8.07;;
14316;SDS011;7242;50.858;6.586;2024-01-30T03:35:11;11.93;;;8.07;;
14316;SDS011;7242;50.858;6.586;2024-01-30T03:38:12;10.60;;;8.67;;
14316;SDS011;7242;50.858;6.586;2024-01-30T03:41:13;11.77;;;9.93;;
14316;SDS011;7242;50.858;6.586;2024-01-30T03:44:13;12.00;;;8.77;;
14316;SDS011;7242;50.858;6.586;2024-01-30T03:47:14;10.70;;;8.37;;
14316;SDS011;7242;50.858;6.586;2024-01-30T03:50:15;9.37;;;7.50;;
14316;SDS011;7242;50.858;6.586;2024-01-30T03:53:17;9.97;;;7.57;;
14316;SDS011;7242;50.858;6.586;2024-01-30T03:56:18;8.90;;;7.47;;
14316;SDS011;7242;50.858;6.586;2024-01-30T03:59:19;10.00;;;7.40;;
14316;SDS011;7242;50.858;6.586;2024-01-30T04:02:24;7.70;;;6.60;;
14316;SDS011;7242;50.858;6.586;2024-01-30T04:05:25;8.77;;;7.53;;
14316;SDS011;7242;50.858;6.586;2024-01-30T04:08:26;9.30;;;7.10;;
14316;SDS011;7242;50.858;6.586;2024-01-30T04:11:26;9.50;;;7.20;;
14316;SDS011;7242;50.858;6.586;2024-01-30T04:14:27;8.83;;;7.00;;
14316;SDS011;7242;50.858;6.586;2024-01-30T04:17:28;8.53;;;6.63;;
14316;SDS011;7242;50.858;6.586;2024-01-30T04:20:29;8.60;;;6.73;;
14316;SDS011;7242;50.858;6.586;2024-01-30T04:23:30;12.17;;;7.00;;
14316;SDS011;7242;50.858;6.586;2024-01-30T04:26:31;11.30;;;7.27;;
14316;SDS011;7242;50.858;6.586;2024-01-30T04:29:32;9.57;;;7.37;;
14316;SDS011;7242;50.858;6.586;2024-01-30T04:32:33;8.73;;;6.10;;
14316;SDS011;7242;50.858;6.586;2024-01-30T04:35:35;10.13;;;7.47;;
14316;SDS011;7242;50.858;6.586;2024-01-30T04:38:37;8.67;;;6.80;;
14316;SDS011;7242;50.858;6.586;2024-01-30T04:41:39;8.57;;;6.97;;
14316;SDS011;7242;50.858;6.586;2024-01-30T04:44:40;8.37;;;7.10;;
14316;SDS011;7242;50.858;6.586;2024-01-30T04:47:42;7.47;;;6.63;;
14316;SDS011;7242;50.858;6.586;2024-01-30T04:50:43;7.90;;;6.50;;
14316;SDS011;7242;50.858;6.586;2024-01-30T04:53:44;10.00;;;6.70;;
14316;SDS011;7242;50.858;6.586;2024-01-30T04:56:45;9.17;;;7.03;;
14316;SDS011;7242;50.858;6.586;2024-01-30T04:59:45;8.53;;;6.70;;
14316;SDS011;7242;50.858;6.586;2024-01-30T05:02:47;9.90;;;6.67;;
14316;SDS011;7242;50.858;6.586;2024-01-30T05:05:47;11.23;;;6.97;;
14316;SDS011;7242;50.858;6.586;2024-01-30T05:08:49;8.50;;;7.30;;
14316;SDS011;7242;50.858;6.586;2024-01-30T05:11:50;9.37;;;7.10;;
14316;SDS011;7242;50.858;6.586;2024-01-30T05:14:51;9.97;;;7.30;;
14316;SDS011;7242;50.858;6.586;2024-01-30T05:17:52;9.20;;;7.27;;
14316;SDS011;7242;50.858;6.586;2024-01-30T05:20:53;9.97;;;6.90;;
14316;SDS011;7242;50.858;6.586;2024-01-30T05:23:54;8.07;;;6.53;;
14316;SDS011;7242;50.858;6.586;2024-01-30T05:26:55;10.20;;;7.33;;
14316;SDS011;7242;50.858;6.586;2024-01-30T05:29:56;9.07;;;7.03;;
14316;SDS011;7242;50.858;6.586;2024-01-30T05:32:58;7.73;;;6.57;;
14316;SDS011;7242;50.858;6.586;2024-01-30T05:35:58;7.03;;;6.33;;
14316;SDS011;7242;50.858;6.586;2024-01-30T05:39:00;8.73;;;6.57;;
14316;SDS011;7242;50.858;6.586;2024-01-30T05:42:01;6.70;;;6.00;;
14316;SDS011;7242;50.858;6.586;2024-01-30T05:45:02;7.77;;;6.20;;
14316;SDS011;7242;50.858;6.586;2024-01-30T05:48:05;7.93;;;6.83;;
14316;SDS011;7242;50.858;6.586;2024-01-30T05:51:07;9.60;;;6.30;;
14316;SDS011;7242;50.858;6.586;2024-01-30T05:54:08;10.73;;;6.33;;
14316;SDS011;7242;50.858;6.586;2024-01-30T05:57:09;10.47;;;6.70;;
14316;SDS011;7242;50.858;6.586;2024-01-30T06:00:10;9.00;;;6.63;;
14316;SDS011;7242;50.858;6.586;2024-01-30T06:03:11;9.03;;;6.27;;
14316;SDS011;7242;50.858;6.586;2024-01-30T06:06:12;9.37;;;6.10;;
14316;SDS011;7242;50.858;6.586;2024-01-30T06:09:13;7.60;;;6.40;;
14316;SDS011;7242;50.858;6.586;2024-01-30T06:12:14;7.33;;;5.87;;
14316;SDS011;7242;50.858;6.586;2024-01-30T06:15:15;9.20;;;6.47;;
14316;SDS011;7242;50.858;6.586;2024-01-30T06:18:16;10.17;;;6.37;;
14316;SDS011;7242;50.858;6.586;2024-01-30T06:21:18;8.90;;;6.07;;
14316;SDS011;7242;50.858;6.586;2024-01-30T06:24:19;7.93;;;6.20;;
14316;SDS011;7242;50.858;6.586;2024-01-30T06:27:20;7.40;;;6.37;;
14316;SDS011;7242;50.858;6.586;2024-01-30T06:30:21;9.10;;;6.37;;
14316;SDS011;7242;50.858;6.586;2024-01-30T06:33:22;9.67;;;6.83;;
14316;SDS011;7242;50.858;6.586;2024-01-30T06:36:23;10.67;;;6.90;;
14316;SDS011;7242;50.858;6.586;2024-01-30T06:39:24;9.13;;;6.93;;
14316;SDS011;7242;50.858;6.586;2024-01-30T06:42:25;9.63;;;7.33;;
14316;SDS011;7242;50.858;6.586;2024-01-30T06:45:26;9.50;;;6.73;;
14316;SDS011;7242;50.858;6.586;2024-01-30T06:48:27;9.53;;;7.07;;
14316;SDS011;7242;50.858;6.586;2024-01-30T06:51:28;9.73;;;7.53;;
14316;SDS011;7242;50.858;6.586;2024-01-30T06:54:29;9.47;;;6.80;;
14316;SDS011;7242;50.858;6.586;2024-01-30T06:57:31;11.90;;;7.57;;
14316;SDS011;7242;50.858;6.586;2024-01-30T07:00:32;8.60;;;7.23;;
14316;SDS011;7242;50.858;6.586;2024-01-30T07:03:33;9.23;;;7.40;;
14316;SDS011;7242;50.858;6.586;2024-01-30T07:06:34;10.13;;;7.93;;
14316;SDS011;7242;50.858;6.586;2024-01-30T07:09:35;8.83;;;7.57;;
14316;SDS011;7242;50.858;6.586;2024-01-30T07:12:36;12.40;;;8.30;;
14316;SDS011;7242;50.858;6.586;2024-01-30T07:15:37;9.23;;;7.50;;
14316;SDS011;7242;50.858;6.586;2024-01-30T07:18:38;10.50;;;7.47;;
14316;SDS011;7242;50.858;6.586;2024-01-30T07:21:39;12.20;;;7.87;;
14316;SDS011;7242;50.858;6.586;2024-01-30T07:24:43;9.13;;;7.23;;
14316;SDS011;7242;50.858;6.586;2024-01-30T07:27:49;7.67;;;6.80;;
14316;SDS011;7242;50.858;6.586;2024-01-30T07:30:50;9.13;;;7.17;;
14316;SDS011;7242;50.858;6.586;2024-01-30T07:33:51;9.73;;;7.67;;
14316;SDS011;7242;50.858;6.586;2024-01-30T07:36:53;14.03;;;6.90;;
14316;SDS011;7242;50.858;6.586;2024-01-30T07:39:54;10.10;;;6.80;;
14316;SDS011;7242;50.858;6.586;2024-01-30T07:42:55;8.03;;;7.03;;
14316;SDS011;7242;50.858;6.586;2024-01-30T07:45:56;7.90;;;7.00;;
14316;SDS011;7242;50.858;6.586;2024-01-30T07:48:58;8.83;;;6.97;;
14316;SDS011;7242;50.858;6.586;2024-01-30T07:52:01;9.03;;;7.23;;
14316;SDS011;7242;50.858;6.586;2024-01-30T07:55:05;9.70;;;6.97;;
14316;SDS011;7242;50.858;6.586;2024-01-30T07:58:08;9.83;;;6.67;;
14316;SDS011;7242;50.858;6.586;2024-01-30T08:01:10;12.93;;;6.53;;
14316;SDS011;7242;50.858;6.586;2024-01-30T08:04:11;8.80;;;6.57;;
14316;SDS011;7242;50.858;6.586;2024-01-30T08:07:12;10.73;;;6.87;;
14316;SDS011;7242;50.858;6.586;2024-01-30T08:10:14;9.80;;;7.17;;
14316;SDS011;7242;50.858;6.586;2024-01-30T08:13:14;8.87;;;6.93;;
14316;SDS011;7242;50.858;6.586;2024-01-30T08:16:16;9.17;;;7.07;;
14316;SDS011;7242;50.858;6.586;2024-01-30T08:19:16;11.30;;;7.03;;
14316;SDS011;7242;50.858;6.586;2024-01-30T08:22:18;11.40;;;7.10;;
14316;SDS011;7242;50.858;6.586;2024-01-30T08:25:18;7.20;;;6.43;;
14316;SDS011;7242;50.858;6.586;2024-01-30T08:28:20;7.67;;;6.80;;
14316;SDS011;7242;50.858;6.586;2024-01-30T08:31:20;8.40;;;6.63;;
14316;SDS011;7242;50.858;6.586;2024-01-30T08:34:21;8.50;;;6.73;;
14316;SDS011;7242;50.858;6.586;2024-01-30T08:37:22;8.20;;;6.43;;
14316;SDS011;7242;50.858;6.586;2024-01-30T08:40:23;9.17;;;6.80;;
14316;SDS011;7242;50.858;6.586;2024-01-30T08:43:24;7.27;;;6.37;;
14316;SDS011;7242;50.858;6.586;2024-01-30T08:46:25;7.40;;;6.20;;
14316;SDS011;7242;50.858;6.586;2024-01-30T08:49:26;7.07;;;5.63;;
14316;SDS011;7242;50.858;6.586;2024-01-30T08:52:27;9.40;;;6.13;;
14316;SDS011;7242;50.858;6.586;2024-01-30T08:55:28;8.87;;;6.27;;
14316;SDS011;7242;50.858;6.586;2024-01-30T08:58:29;10.87;;;6.23;;
14316;SDS011;7242;50.858;6.586;2024-01-30T09:01:30;7.70;;;6.30;;
14316;SDS011;7242;50.858;6.586;2024-01-30T09:04:31;7.47;;;6.43;;
14316;SDS011;7242;50.858;6.586;2024-01-30T09:07:32;8.93;;;6.50;;
14316;SDS011;7242;50.858;6.586;2024-01-30T09:10:33;10.53;;;6.80;;
14316;SDS011;7242;50.858;6.586;2024-01-30T09:13:34;8.60;;;6.33;;
14316;SDS011;7242;50.858;6.586;2024-01-30T09:16:36;9.67;;;6.73;;
14316;SDS011;7242;50.858;6.586;2024-01-30T09:19:37;8.23;;;6.37;;
14316;SDS011;7242;50.858;6.586;2024-01-30T09:22:38;7.53;;;6.70;;
14316;SDS011;7242;50.858;6.586;2024-01-30T09:25:39;10.43;;;6.90;;
14316;SDS011;7242;50.858;6.586;2024-01-30T09:28:40;8.77;;;6.27;;
14316;SDS011;7242;50.858;6.586;2024-01-30T09:31:43;8.03;;;6.40;;
14316;SDS011;7242;50.858;6.586;2024-01-30T09:34:45;6.67;;;5.67;;
14316;SDS011;7242;50.858;6.586;2024-01-30T09:37:46;7.63;;;5.77;;
14316;SDS011;7242;50.858;6.586;2024-01-30T09:40:48;9.07;;;6.70;;
14316;SDS011;7242;50.858;6.586;2024-01-30T09:43:55;8.03;;;5.90;;
14316;SDS011;7242;50.858;6.586;2024-01-30T09:46:58;7.33;;;6.37;;
14316;SDS011;7242;50.858;6.586;2024-01-30T09:50:03;7.23;;;6.30;;
14316;SDS011;7242;50.858;6.586;2024-01-30T09:53:06;8.07;;;6.33;;
14316;SDS011;7242;50.858;6.586;2024-01-30T09:56:09;7.23;;;6.10;;
14316;SDS011;7242;50.858;6.586;2024-01-30T09:59:11;8.87;;;7.17;;
14316;SDS011;7242;50.858;6.586;2024-01-30T10:02:12;9.60;;;7.10;;
14316;SDS011;7242;50.858;6.586;2024-01-30T10:05:15;9.03;;;6.90;;
14316;SDS011;7242;50.858;6.586;2024-01-30T10:08:19;8.87;;;7.73;;
14316;SDS011;7242;50.858;6.586;2024-01-30T10:11:20;9.77;;;7.87;;
14316;SDS011;7242;50.858;6.586;2024-01-30T10:14:22;10.57;;;7.63;;
14316;SDS011;7242;50.858;6.586;2024-01-30T10:17:24;10.00;;;7.57;;
14316;SDS011;7242;50.858;6.586;2024-01-30T10:20:25;10.83;;;8.30;;
14316;SDS011;7242;50.858;6.586;2024-01-30T10:23:26;10.10;;;7.90;;
14316;SDS011;7242;50.858;6.586;2024-01-30T10:26:27;8.77;;;7.40;;
14316;SDS011;7242;50.858;6.586;2024-01-30T10:29:29;9.97;;;7.70;;
14316;SDS011;7242;50.858;6.586;2024-01-30T10:32:30;11.30;;;7.80;;
14316;SDS011;7242;50.858;6.586;2024-01-30T10:35:31;11.67;;;8.03;;
14316;SDS011;7242;50.858;6.586;2024-01-30T10:38:34;9.87;;;8.10;;
14316;SDS011;7242;50.858;6.586;2024-01-30T10:41:37;8.53;;;7.50;;
14316;SDS011;7242;50.858;6.586;2024-01-30T10:44:48;11.20;;;7.80;;
14316;SDS011;7242;50.858;6.586;2024-01-30T10:48:12;12.70;;;7.90;;
14316;SDS011;7242;50.858;6.586;2024-01-30T10:51:15;10.07;;;7.17;;
14316;SDS011;7242;50.858;6.586;2024-01-30T10:54:16;7.73;;;6.90;;
14316;SDS011;7242;50.858;6.586;2024-01-30T10:57:18;9.67;;;7.17;;
14316;SDS011;7242;50.858;6.586;2024-01-30T11:00:19;10.23;;;6.63;;
14316;SDS011;7242;50.858;6.586;2024-01-30T11:03:23;8.00;;;6.00;;
14316;SDS011;7242;50.858;6.586;2024-01-30T11:06:25;13.03;;;7.90;;
14316;SDS011;7242;50.858;6.586;2024-01-30T11:09:28;11.53;;;7.77;;
14316;SDS011;7242;50.858;6.586;2024-01-30T11:12:30;10.43;;;7.60;;
14316;SDS011;7242;50.858;6.586;2024-01-30T11:15:37;9.87;;;7.47;;
14316;SDS011;7242;50.858;6.586;2024-01-30T11:18:38;9.93;;;6.60;;
14316;SDS011;7242;50.858;6.586;2024-01-30T11:21:42;10.73;;;7.37;;
14316;SDS011;7242;50.858;6.586;2024-01-30T11:24:43;11.77;;;7.17;;
14316;SDS011;7242;50.858;6.586;2024-01-30T11:27:49;9.27;;;7.53;;
14316;SDS011;7242;50.858;6.586;2024-01-30T11:30:51;12.30;;;8.27;;
14316;SDS011;7242;50.858;6.586;2024-01-30T11:33:55;9.90;;;6.77;;
14316;SDS011;7242;50.858;6.586;2024-01-30T11:36:58;12.97;;;7.33;;
14316;SDS011;7242;50.858;6.586;2024-01-30T11:40:03;10.63;;;7.90;;
14316;SDS011;7242;50.858;6.586;2024-01-30T11:43:05;9.90;;;7.57;;
14316;SDS011;7242;50.858;6.586;2024-01-30T11:46:08;8.93;;;8.00;;
14316;SDS011;7242;50.858;6.586;2024-01-30T11:49:10;11.17;;;7.23;;
14316;SDS011;7242;50.858;6.586;2024-01-30T11:52:11;11.73;;;8.60;;
14316;SDS011;7242;50.858;6.586;2024-01-30T11:55:12;9.40;;;7.17;;
14316;SDS011;7242;50.858;6.586;2024-01-30T11:58:14;12.43;;;8.13;;
14316;SDS011;7242;50.858;6.586;2024-01-30T12:01:16;9.40;;;7.80;;
14316;SDS011;7242;50.858;6.586;2024-01-30T12:04:17;10.90;;;7.53;;
14316;SDS011;7242;50.858;6.586;2024-01-30T12:07:18;10.30;;;7.70;;
14316;SDS011;7242;50.858;6.586;2024-01-30T12:10:19;10.63;;;6.70;;
14316;SDS011;7242;50.858;6.586;2024-01-30T12:13:21;8.57;;;6.00;;
14316;SDS011;7242;50.858;6.586;2024-01-30T12:16:22;10.53;;;6.17;;
14316;SDS011;7242;50.858;6.586;2024-01-30T12:19:24;8.03;;;5.37;;
14316;SDS011;7242;50.858;6.586;2024-01-30T12:22:25;8.43;;;4.97;;
14316;SDS011;7242;50.858;6.586;2024-01-30T12:25:26;8.20;;;5.43;;
14316;SDS011;7242;50.858;6.586;2024-01-30T12:28:27;10.30;;;5.33;;
14316;SDS011;7242;50.858;6.586;2024-01-30T12:31:28;6.83;;;4.70;;
14316;SDS011;7242;50.858;6.586;2024-01-30T12:34:29;8.10;;;5.30;;
14316;SDS011;7242;50.858;6.586;2024-01-30T12:37:30;9.53;;;5.37;;
14316;SDS011;7242;50.858;6.586;2024-01-30T12:40:33;9.37;;;5.73;;
14316;SDS011;7242;50.858;6.586;2024-01-30T12:43:34;11.03;;;5.67;;
14316;SDS011;7242;50.858;6.586;2024-01-30T12:46:35;11.07;;;5.60;;
14316;SDS011;7242;50.858;6.586;2024-01-30T12:49:35;9.87;;;5.40;;
14316;SDS011;7242;50.858;6.586;2024-01-30T12:52:36;9.63;;;5.30;;
14316;SDS011;7242;50.858;6.586;2024-01-30T12:55:37;9.97;;;5.03;;
14316;SDS011;7242;50.858;6.586;2024-01-30T12:58:38;11.23;;;5.27;;
14316;SDS011;7242;50.858;6.586;2024-01-30T13:01:40;8.80;;;5.20;;
14316;SDS011;7242;50.858;6.586;2024-01-30T13:04:40;7.43;;;4.53;;
14316;SDS011;7242;50.858;6.586;2024-01-30T13:07:42;6.13;;;4.63;;
14316;SDS011;7242;50.858;6.586;2024-01-30T13:10:43;5.37;;;4.47;;
14316;SDS011;7242;50.858;6.586;2024-01-30T13:13:44;7.47;;;4.70;;
14316;SDS011;7242;50.858;6.586;2024-01-30T13:16:45;6.30;;;4.40;;
14316;SDS011;7242;50.858;6.586;2024-01-30T13:19:46;6.00;;;4.30;;
14316;SDS011;7242;50.858;6.586;2024-01-30T13:22:49;6.77;;;4.90;;
14316;SDS011;7242;50.858;6.586;2024-01-30T13:25:50;7.93;;;4.90;;
14316;SDS011;7242;50.858;6.586;2024-01-30T13:28:51;9.23;;;4.80;;
14316;SDS011;7242;50.858;6.586;2024-01-30T13:31:52;7.67;;;4.93;;
14316;SDS011;7242;50.858;6.586;2024-01-30T13:34:53;6.43;;;4.90;;
14316;SDS011;7242;50.858;6.586;2024-01-30T13:37:54;9.60;;;5.20;;
14316;SDS011;7242;50.858;6.586;2024-01-30T13:40:55;10.33;;;5.20;;
14316;SDS011;7242;50.858;6.586;2024-01-30T13:43:56;7.90;;;5.53;;
14316;SDS011;7242;50.858;6.586;2024-01-30T13:46:57;7.37;;;5.20;;
14316;SDS011;7242;50.858;6.586;2024-01-30T13:49:58;7.97;;;5.27;;
14316;SDS011;7242;50.858;6.586;2024-01-30T13:52:59;9.13;;;5.33;;
14316;SDS011;7242;50.858;6.586;2024-01-30T13:56:01;8.30;;;5.33;;
14316;SDS011;7242;50.858;6.586;2024-01-30T13:59:01;10.10;;;5.97;;
14316;SDS011;7242;50.858;6.586;2024-01-30T14:02:05;7.57;;;5.70;;
14316;SDS011;7242;50.858;6.586;2024-01-30T14:05:08;10.03;;;5.73;;
14316;SDS011;7242;50.858;6.586;2024-01-30T14:08:10;8.77;;;5.97;;
14316;SDS011;7242;50.858;6.586;2024-01-30T14:11:11;9.93;;;6.50;;
14316;SDS011;7242;50.858;6.586;2024-01-30T14:14:12;8.20;;;6.17;;
14316;SDS011;7242;50.858;6.586;2024-01-30T14:17:13;11.77;;;6.50;;
14316;SDS011;7242;50.858;6.586;2024-01-30T14:20:15;9.13;;;6.03;;
14316;SDS011;7242;50.858;6.586;2024-01-30T14:23:19;9.93;;;6.40;;
14316;SDS011;7242;50.858;6.586;2024-01-30T14:26:20;9.30;;;6.43;;
14316;SDS011;7242;50.858;6.586;2024-01-30T14:29:21;12.50;;;6.63;;
14316;SDS011;7242;50.858;6.586;2024-01-30T14:32:23;9.73;;;6.33;;
14316;SDS011;7242;50.858;6.586;2024-01-30T14:35:24;10.00;;;6.37;;
14316;SDS011;7242;50.858;6.586;2024-01-30T14:38:25;12.40;;;6.23;;
14316;SDS011;7242;50.858;6.586;2024-01-30T14:41:26;10.00;;;6.40;;
14316;SDS011;7242;50.858;6.586;2024-01-30T14:44:27;10.80;;;6.13;;
14316;SDS011;7242;50.858;6.586;2024-01-30T14:47:28;10.30;;;6.20;;
14316;SDS011;7242;50.858;6.586;2024-01-30T14:50:29;7.93;;;5.90;;
14316;SDS011;7242;50.858;6.586;2024-01-30T14:53:30;9.20;;;6.30;;
14316;SDS011;7242;50.858;6.586;2024-01-30T14:56:31;11.50;;;6.17;;
14316;SDS011;7242;50.858;6.586;2024-01-30T14:59:33;8.83;;;6.40;;
14316;SDS011;7242;50.858;6.586;2024-01-30T15:02:34;11.37;;;6.60;;
14316;SDS011;7242;50.858;6.586;2024-01-30T15:05:35;9.43;;;6.20;;
14316;SDS011;7242;50.858;6.586;2024-01-30T15:08:37;8.10;;;6.53;;
14316;SDS011;7242;50.858;6.586;2024-01-30T15:11:37;11.80;;;6.50;;
14316;SDS011;7242;50.858;6.586;2024-01-30T15:14:39;9.27;;;7.00;;
14316;SDS011;7242;50.858;6.586;2024-01-30T15:17:39;11.00;;;6.73;;
14316;SDS011;7242;50.858;6.586;2024-01-30T15:20:41;13.13;;;7.33;;
14316;SDS011;7242;50.858;6.586;2024-01-30T15:23:41;10.23;;;6.93;;
14316;SDS011;7242;50.858;6.586;2024-01-30T15:26:44;10.73;;;6.93;;
14316;SDS011;7242;50.858;6.586;2024-01-30T15:29:45;11.57;;;8.20;;
14316;SDS011;7242;50.858;6.586;2024-01-30T15:32:46;15.73;;;7.83;;
14316;SDS011;7242;50.858;6.586;2024-01-30T15:35:47;12.57;;;8.40;;
14316;SDS011;7242;50.858;6.586;2024-01-30T15:38:48;12.83;;;7.77;;
14316;SDS011;7242;50.858;6.586;2024-01-30T15:41:49;12.57;;;7.40;;
14316;SDS011;7242;50.858;6.586;2024-01-30T15:44:50;12.10;;;6.77;;
14316;SDS011;7242;50.858;6.586;2024-01-30T15:47:51;10.40;;;5.70;;
14316;SDS011;7242;50.858;6.586;2024-01-30T15:50:52;12.97;;;6.10;;
14316;SDS011;7242;50.858;6.586;2024-01-30T15:53:53;10.83;;;6.00;;
14316;SDS011;7242;50.858;6.586;2024-01-30T15:56:53;12.73;;;5.63;;
14316;SDS011;7242;50.858;6.586;2024-01-30T15:59:55;9.40;;;4.87;;
14316;SDS011;7242;50.858;6.586;2024-01-30T16:02:56;10.53;;;4.57;;
14316;SDS011;7242;50.858;6.586;2024-01-30T16:06:19;6.70;;;3.80;;
14316;SDS011;7242;50.858;6.586;2024-01-30T16:09:39;10.77;;;4.10;;
14316;SDS011;7242;50.858;6.586;2024-01-30T16:13:00;8.20;;;3.77;;
14316;SDS011;7242;50.858;6.586;2024-01-30T16:16:21;7.27;;;3.17;;
14316;SDS011;7242;50.858;6.586;2024-01-30T16:19:41;7.40;;;3.43;;
14316;SDS011;7242;50.858;6.586;2024-01-30T16:23:04;7.10;;;3.10;;
14316;SDS011;7242;50.858;6.586;2024-01-30T16:26:24;5.17;;;2.87;;
14316;SDS011;7242;50.858;6.586;2024-01-30T16:29:46;4.00;;;2.67;;
14316;SDS011;7242;50.858;6.586;2024-01-30T16:33:07;4.23;;;3.07;;
14316;SDS011;7242;50.858;6.586;2024-01-30T16:36:30;5.03;;;2.67;;
14316;SDS011;7242;50.858;6.586;2024-01-30T16:39:51;5.40;;;2.83;;
14316;SDS011;7242;50.858;6.586;2024-01-30T16:43:12;4.27;;;2.77;;
14316;SDS011;7242;50.858;6.586;2024-01-30T16:46:34;6.07;;;2.87;;
14316;SDS011;7242;50.858;6.586;2024-01-30T16:49:58;6.00;;;2.50;;
14316;SDS011;7242;50.858;6.586;2024-01-30T16:53:20;4.93;;;2.40;;
14316;SDS011;7242;50.858;6.586;2024-01-30T16:56:45;4.03;;;2.10;;
14316;SDS011;7242;50.858;6.586;2024-01-30T17:00:10;4.30;;;2.50;;
14316;SDS011;7242;50.858;6.586;2024-01-30T17:03:32;3.73;;;1.80;;
14316;SDS011;7242;50.858;6.586;2024-01-30T17:06:55;3.10;;;1.83;;
14316;SDS011;7242;50.858;6.586;2024-01-30T17:10:18;4.83;;;1.80;;
14316;SDS011;7242;50.858;6.586;2024-01-30T17:13:39;4.97;;;2.10;;
14316;SDS011;7242;50.858;6.586;2024-01-30T17:17:01;5.07;;;1.83;;
14316;SDS011;7242;50.858;6.586;2024-01-30T17:20:24;3.30;;;2.00;;
14316;SDS011;7242;50.858;6.586;2024-01-30T17:23:45;2.63;;;1.67;;
14316;SDS011;7242;50.858;6.586;2024-01-30T17:27:06;5.10;;;1.93;;
14316;SDS011;7242;50.858;6.586;2024-01-30T17:30:28;3.43;;;1.83;;
14316;SDS011;7242;50.858;6.586;2024-01-30T17:33:52;5.17;;;1.90;;
14316;SDS011;7242;50.858;6.586;2024-01-30T17:37:16;2.90;;;1.67;;
14316;SDS011;7242;50.858;6.586;2024-01-30T17:40:55;3.77;;;2.00;;
14316;SDS011;7242;50.858;6.586;2024-01-30T17:44:16;5.57;;;2.07;;
14316;SDS011;7242;50.858;6.586;2024-01-30T17:47:38;3.63;;;2.23;;
14316;SDS011;7242;50.858;6.586;2024-01-30T17:51:02;5.07;;;2.23;;
14316;SDS011;7242;50.858;6.586;2024-01-30T17:54:23;3.33;;;1.70;;
14316;SDS011;7242;50.858;6.586;2024-01-30T17:57:44;4.03;;;2.00;;
14316;SDS011;7242;50.858;6.586;2024-01-30T18:00:46;6.00;;;2.23;;
14316;SDS011;7242;50.858;6.586;2024-01-30T18:03:46;3.13;;;1.93;;
14316;SDS011;7242;50.858;6.586;2024-01-30T18:06:51;2.83;;;1.80;;
14316;SDS011;7242;50.858;6.586;2024-01-30T18:09:53;3.87;;;1.50;;
14316;SDS011;7242;50.858;6.586;2024-01-30T18:12:54;4.07;;;1.70;;
14316;SDS011;7242;50.858;6.586;2024-01-30T18:15:56;1.90;;;1.37;;
14316;SDS011;7242;50.858;6.586;2024-01-30T18:18:58;6.00;;;1.70;;
14316;SDS011;7242;50.858;6.586;2024-01-30T18:21:59;5.17;;;1.60;;
14316;SDS011;7242;50.858;6.586;2024-01-30T18:25:01;3.83;;;1.50;;
14316;SDS011;7242;50.858;6.586;2024-01-30T18:28:03;3.17;;;1.30;;
14316;SDS011;7242;50.858;6.586;2024-01-30T18:31:05;3.63;;;1.53;;
14316;SDS011;7242;50.858;6.586;2024-01-30T18:34:07;2.13;;;1.30;;